sensor_id;sensor_type;location;lat;lon;timestamp;P1;durP1;ratioP1;P2;durP2;ratioP2
12871;SDS011;6504;53.766;9.626;2023-02-15T00:00:16;22.20;;;17.77;;
12871;SDS011;6504;53.766;9.626;2023-02-15T00:02:45;22.47;;;17.70;;
12871;SDS011;6504;53.766;9.626;2023-02-15T00:05:13;23.03;;;17.70;;
12871;SDS011;6504;53.766;9.626;2023-02-15T00:07:41;23.83;;;19.33;;
12871;SDS011;6504;53.766;9.626;2023-02-15T00:10:10;30.37;;;25.83;;
12871;SDS011;6504;53.766;9.626;2023-02-15T00:12:40;32.23;;;23.87;;
12871;SDS011;6504;53.766;9.626;2023-02-15T00:15:08;35.73;;;26.63;;
12871;SDS011;6504;53.766;9.626;2023-02-15T00:17:37;54.60;;;33.10;;
12871;SDS011;6504;53.766;9.626;2023-02-15T00:20:06;45.80;;;34.80;;
12871;SDS011;6504;53.766;9.626;2023-02-15T00:22:34;53.43;;;35.87;;
12871;SDS011;6504;53.766;9.626;2023-02-15T00:25:02;42.67;;;31.60;;
12871;SDS011;6504;53.766;9.626;2023-02-15T00:27:31;34.77;;;27.70;;
12871;SDS011;6504;53.766;9.626;2023-02-15T00:30:02;31.77;;;26.37;;
12871;SDS011;6504;53.766;9.626;2023-02-15T00:32:30;28.67;;;25.47;;
12871;SDS011;6504;53.766;9.626;2023-02-15T00:34:58;29.40;;;25.40;;
12871;SDS011;6504;53.766;9.626;2023-02-15T00:37:26;42.30;;;26.43;;
12871;SDS011;6504;53.766;9.626;2023-02-15T00:39:54;26.70;;;22.97;;
12871;SDS011;6504;53.766;9.626;2023-02-15T00:42:22;28.33;;;23.30;;
12871;SDS011;6504;53.766;9.626;2023-02-15T00:44:51;27.37;;;23.67;;
12871;SDS011;6504;53.766;9.626;2023-02-15T00:47:20;27.03;;;22.93;;
12871;SDS011;6504;53.766;9.626;2023-02-15T00:49:48;26.77;;;22.47;;
12871;SDS011;6504;53.766;9.626;2023-02-15T00:52:16;26.93;;;22.73;;
12871;SDS011;6504;53.766;9.626;2023-02-15T00:54:44;30.40;;;23.53;;
12871;SDS011;6504;53.766;9.626;2023-02-15T00:57:12;27.80;;;22.50;;
12871;SDS011;6504;53.766;9.626;2023-02-15T00:59:40;36.07;;;24.80;;
12871;SDS011;6504;53.766;9.626;2023-02-15T01:02:08;42.03;;;24.70;;
12871;SDS011;6504;53.766;9.626;2023-02-15T01:04:37;27.37;;;21.77;;
12871;SDS011;6504;53.766;9.626;2023-02-15T01:07:06;26.50;;;21.53;;
12871;SDS011;6504;53.766;9.626;2023-02-15T01:09:34;22.60;;;19.63;;
12871;SDS011;6504;53.766;9.626;2023-02-15T01:12:03;23.47;;;20.30;;
12871;SDS011;6504;53.766;9.626;2023-02-15T01:14:31;23.40;;;19.67;;
12871;SDS011;6504;53.766;9.626;2023-02-15T01:16:59;24.27;;;21.17;;
12871;SDS011;6504;53.766;9.626;2023-02-15T01:19:27;30.77;;;23.13;;
12871;SDS011;6504;53.766;9.626;2023-02-15T01:21:57;42.17;;;27.80;;
12871;SDS011;6504;53.766;9.626;2023-02-15T01:24:25;40.77;;;26.80;;
12871;SDS011;6504;53.766;9.626;2023-02-15T01:26:53;38.33;;;27.07;;
12871;SDS011;6504;53.766;9.626;2023-02-15T01:29:21;34.63;;;25.17;;
12871;SDS011;6504;53.766;9.626;2023-02-15T01:31:49;32.63;;;24.07;;
12871;SDS011;6504;53.766;9.626;2023-02-15T01:34:17;34.40;;;25.60;;
12871;SDS011;6504;53.766;9.626;2023-02-15T01:36:45;33.17;;;25.37;;
12871;SDS011;6504;53.766;9.626;2023-02-15T01:39:15;37.03;;;24.53;;
12871;SDS011;6504;53.766;9.626;2023-02-15T01:41:43;27.47;;;23.10;;
12871;SDS011;6504;53.766;9.626;2023-02-15T01:47:14;28.77;;;23.13;;
12871;SDS011;6504;53.766;9.626;2023-02-15T01:49:45;30.43;;;23.80;;
12871;SDS011;6504;53.766;9.626;2023-02-15T01:52:15;27.00;;;22.13;;
12871;SDS011;6504;53.766;9.626;2023-02-15T01:54:47;26.93;;;21.77;;
12871;SDS011;6504;53.766;9.626;2023-02-15T01:57:16;26.37;;;21.77;;
12871;SDS011;6504;53.766;9.626;2023-02-15T01:59:49;28.63;;;22.53;;
12871;SDS011;6504;53.766;9.626;2023-02-15T02:02:23;25.27;;;22.17;;
12871;SDS011;6504;53.766;9.626;2023-02-15T02:04:52;25.87;;;21.77;;
12871;SDS011;6504;53.766;9.626;2023-02-15T02:07:22;23.80;;;20.53;;
12871;SDS011;6504;53.766;9.626;2023-02-15T02:09:55;23.37;;;20.27;;
12871;SDS011;6504;53.766;9.626;2023-02-15T02:12:23;24.23;;;20.73;;
12871;SDS011;6504;53.766;9.626;2023-02-15T02:14:52;23.73;;;20.80;;
12871;SDS011;6504;53.766;9.626;2023-02-15T02:17:21;26.13;;;21.03;;
12871;SDS011;6504;53.766;9.626;2023-02-15T02:23:01;24.23;;;20.63;;
12871;SDS011;6504;53.766;9.626;2023-02-15T02:28:57;21.97;;;18.97;;
12871;SDS011;6504;53.766;9.626;2023-02-15T02:32:00;20.97;;;18.20;;
12871;SDS011;6504;53.766;9.626;2023-02-15T02:34:55;21.03;;;18.63;;
12871;SDS011;6504;53.766;9.626;2023-02-15T02:37:29;21.33;;;18.77;;
12871;SDS011;6504;53.766;9.626;2023-02-15T02:40:05;21.40;;;19.10;;
12871;SDS011;6504;53.766;9.626;2023-02-15T02:42:41;22.07;;;19.30;;
12871;SDS011;6504;53.766;9.626;2023-02-15T02:45:13;24.27;;;20.13;;
12871;SDS011;6504;53.766;9.626;2023-02-15T02:47:46;20.47;;;18.23;;
12871;SDS011;6504;53.766;9.626;2023-02-15T02:50:21;22.63;;;19.27;;
12871;SDS011;6504;53.766;9.626;2023-02-15T02:52:52;21.87;;;18.43;;
12871;SDS011;6504;53.766;9.626;2023-02-15T02:55:22;21.63;;;19.27;;
12871;SDS011;6504;53.766;9.626;2023-02-15T02:57:57;21.30;;;18.13;;
12871;SDS011;6504;53.766;9.626;2023-02-15T03:00:38;23.20;;;19.57;;
12871;SDS011;6504;53.766;9.626;2023-02-15T03:03:11;21.83;;;19.43;;
12871;SDS011;6504;53.766;9.626;2023-02-15T03:05:43;22.23;;;18.90;;
12871;SDS011;6504;53.766;9.626;2023-02-15T03:08:15;23.10;;;19.10;;
12871;SDS011;6504;53.766;9.626;2023-02-15T03:10:48;23.13;;;20.07;;
12871;SDS011;6504;53.766;9.626;2023-02-15T03:13:20;22.20;;;18.83;;
12871;SDS011;6504;53.766;9.626;2023-02-15T03:15:49;21.87;;;19.10;;
12871;SDS011;6504;53.766;9.626;2023-02-15T03:18:36;22.63;;;18.97;;
12871;SDS011;6504;53.766;9.626;2023-02-15T03:21:09;20.03;;;17.83;;
12871;SDS011;6504;53.766;9.626;2023-02-15T03:23:50;24.77;;;19.63;;
12871;SDS011;6504;53.766;9.626;2023-02-15T03:26:21;23.80;;;19.90;;
12871;SDS011;6504;53.766;9.626;2023-02-15T03:28:53;23.40;;;19.40;;
12871;SDS011;6504;53.766;9.626;2023-02-15T03:31:24;22.87;;;18.97;;
12871;SDS011;6504;53.766;9.626;2023-02-15T03:33:57;23.17;;;19.10;;
12871;SDS011;6504;53.766;9.626;2023-02-15T03:36:30;22.37;;;19.43;;
12871;SDS011;6504;53.766;9.626;2023-02-15T03:39:05;22.37;;;18.50;;
12871;SDS011;6504;53.766;9.626;2023-02-15T03:41:39;22.90;;;20.10;;
12871;SDS011;6504;53.766;9.626;2023-02-15T03:44:13;22.17;;;18.87;;
12871;SDS011;6504;53.766;9.626;2023-02-15T03:46:47;21.63;;;18.43;;
12871;SDS011;6504;53.766;9.626;2023-02-15T03:49:21;21.70;;;18.80;;
12871;SDS011;6504;53.766;9.626;2023-02-15T03:51:54;21.40;;;18.00;;
12871;SDS011;6504;53.766;9.626;2023-02-15T03:54:26;21.43;;;18.77;;
12871;SDS011;6504;53.766;9.626;2023-02-15T03:57:14;21.33;;;18.90;;
12871;SDS011;6504;53.766;9.626;2023-02-15T04:00:03;23.87;;;19.70;;
12871;SDS011;6504;53.766;9.626;2023-02-15T04:03:07;23.83;;;19.47;;
12871;SDS011;6504;53.766;9.626;2023-02-15T04:05:40;21.07;;;18.57;;
12871;SDS011;6504;53.766;9.626;2023-02-15T04:08:10;22.93;;;18.80;;
12871;SDS011;6504;53.766;9.626;2023-02-15T04:10:39;22.33;;;18.83;;
12871;SDS011;6504;53.766;9.626;2023-02-15T04:13:18;21.63;;;18.40;;
12871;SDS011;6504;53.766;9.626;2023-02-15T04:15:46;24.57;;;19.83;;
12871;SDS011;6504;53.766;9.626;2023-02-15T04:18:33;23.17;;;19.03;;
12871;SDS011;6504;53.766;9.626;2023-02-15T04:21:22;22.43;;;18.90;;
12871;SDS011;6504;53.766;9.626;2023-02-15T04:24:10;22.27;;;18.60;;
12871;SDS011;6504;53.766;9.626;2023-02-15T04:26:57;19.63;;;17.03;;
12871;SDS011;6504;53.766;9.626;2023-02-15T04:29:26;20.70;;;17.57;;
12871;SDS011;6504;53.766;9.626;2023-02-15T04:31:58;22.07;;;18.53;;
12871;SDS011;6504;53.766;9.626;2023-02-15T04:34:27;21.83;;;18.37;;
12871;SDS011;6504;53.766;9.626;2023-02-15T04:36:56;19.23;;;17.10;;
12871;SDS011;6504;53.766;9.626;2023-02-15T04:39:25;20.50;;;17.97;;
12871;SDS011;6504;53.766;9.626;2023-02-15T04:41:53;21.63;;;18.10;;
12871;SDS011;6504;53.766;9.626;2023-02-15T04:44:21;21.63;;;18.40;;
12871;SDS011;6504;53.766;9.626;2023-02-15T04:46:49;21.27;;;18.43;;
12871;SDS011;6504;53.766;9.626;2023-02-15T04:49:17;22.27;;;18.53;;
12871;SDS011;6504;53.766;9.626;2023-02-15T04:51:45;20.10;;;17.90;;
12871;SDS011;6504;53.766;9.626;2023-02-15T04:54:13;20.93;;;18.20;;
12871;SDS011;6504;53.766;9.626;2023-02-15T04:56:43;21.23;;;18.30;;
12871;SDS011;6504;53.766;9.626;2023-02-15T04:59:11;20.67;;;18.17;;
12871;SDS011;6504;53.766;9.626;2023-02-15T05:01:40;20.93;;;18.03;;
12871;SDS011;6504;53.766;9.626;2023-02-15T05:04:09;19.73;;;17.30;;
12871;SDS011;6504;53.766;9.626;2023-02-15T05:06:37;20.67;;;17.83;;
12871;SDS011;6504;53.766;9.626;2023-02-15T05:09:05;22.13;;;18.63;;
12871;SDS011;6504;53.766;9.626;2023-02-15T05:11:33;20.07;;;17.03;;
12871;SDS011;6504;53.766;9.626;2023-02-15T05:14:02;28.27;;;18.80;;
12871;SDS011;6504;53.766;9.626;2023-02-15T05:16:31;21.87;;;17.97;;
12871;SDS011;6504;53.766;9.626;2023-02-15T05:18:59;22.73;;;19.47;;
12871;SDS011;6504;53.766;9.626;2023-02-15T05:21:27;21.50;;;18.33;;
12871;SDS011;6504;53.766;9.626;2023-02-15T05:23:55;22.30;;;18.80;;
12871;SDS011;6504;53.766;9.626;2023-02-15T05:26:24;21.90;;;18.83;;
12871;SDS011;6504;53.766;9.626;2023-02-15T05:29:11;21.27;;;17.57;;
12871;SDS011;6504;53.766;9.626;2023-02-15T05:31:39;24.43;;;20.10;;
12871;SDS011;6504;53.766;9.626;2023-02-15T05:34:07;19.40;;;16.83;;
12871;SDS011;6504;53.766;9.626;2023-02-15T05:36:35;23.10;;;18.60;;
12871;SDS011;6504;53.766;9.626;2023-02-15T05:39:03;21.80;;;17.73;;
12871;SDS011;6504;53.766;9.626;2023-02-15T05:41:33;22.33;;;17.70;;
12871;SDS011;6504;53.766;9.626;2023-02-15T05:44:01;19.93;;;17.37;;
12871;SDS011;6504;53.766;9.626;2023-02-15T05:46:30;20.67;;;18.00;;
12871;SDS011;6504;53.766;9.626;2023-02-15T05:48:59;21.00;;;17.80;;
12871;SDS011;6504;53.766;9.626;2023-02-15T05:51:27;19.93;;;17.17;;
12871;SDS011;6504;53.766;9.626;2023-02-15T05:53:55;20.37;;;17.77;;
12871;SDS011;6504;53.766;9.626;2023-02-15T05:56:23;21.43;;;17.57;;
12871;SDS011;6504;53.766;9.626;2023-02-15T05:58:52;22.27;;;18.40;;
12871;SDS011;6504;53.766;9.626;2023-02-15T06:01:22;21.57;;;18.20;;
12871;SDS011;6504;53.766;9.626;2023-02-15T06:03:52;19.77;;;17.13;;
12871;SDS011;6504;53.766;9.626;2023-02-15T06:06:22;22.03;;;18.87;;
12871;SDS011;6504;53.766;9.626;2023-02-15T06:08:54;19.43;;;16.57;;
12871;SDS011;6504;53.766;9.626;2023-02-15T06:11:24;20.77;;;17.53;;
12871;SDS011;6504;53.766;9.626;2023-02-15T06:13:53;21.20;;;17.53;;
12871;SDS011;6504;53.766;9.626;2023-02-15T06:16:23;19.50;;;17.23;;
12871;SDS011;6504;53.766;9.626;2023-02-15T06:18:54;23.13;;;19.17;;
12871;SDS011;6504;53.766;9.626;2023-02-15T06:21:26;21.27;;;17.87;;
12871;SDS011;6504;53.766;9.626;2023-02-15T06:23:56;21.67;;;17.83;;
12871;SDS011;6504;53.766;9.626;2023-02-15T06:26:26;22.13;;;17.57;;
12871;SDS011;6504;53.766;9.626;2023-02-15T06:28:56;21.13;;;17.57;;
12871;SDS011;6504;53.766;9.626;2023-02-15T06:31:25;19.83;;;17.63;;
12871;SDS011;6504;53.766;9.626;2023-02-15T06:33:54;21.80;;;17.23;;
12871;SDS011;6504;53.766;9.626;2023-02-15T06:36:27;19.23;;;17.23;;
12871;SDS011;6504;53.766;9.626;2023-02-15T06:38:55;21.20;;;17.77;;
12871;SDS011;6504;53.766;9.626;2023-02-15T06:41:23;18.90;;;16.87;;
12871;SDS011;6504;53.766;9.626;2023-02-15T06:43:52;19.53;;;17.43;;
12871;SDS011;6504;53.766;9.626;2023-02-15T06:46:20;19.70;;;17.17;;
12871;SDS011;6504;53.766;9.626;2023-02-15T06:48:48;19.47;;;16.97;;
12871;SDS011;6504;53.766;9.626;2023-02-15T06:51:17;19.30;;;17.30;;
12871;SDS011;6504;53.766;9.626;2023-02-15T06:53:46;19.77;;;17.37;;
12871;SDS011;6504;53.766;9.626;2023-02-15T06:56:14;20.83;;;17.53;;
12871;SDS011;6504;53.766;9.626;2023-02-15T06:58:42;19.40;;;16.90;;
12871;SDS011;6504;53.766;9.626;2023-02-15T07:01:13;18.13;;;16.10;;
12871;SDS011;6504;53.766;9.626;2023-02-15T07:03:41;20.90;;;17.70;;
12871;SDS011;6504;53.766;9.626;2023-02-15T07:06:09;19.30;;;16.70;;
12871;SDS011;6504;53.766;9.626;2023-02-15T07:08:39;18.93;;;16.87;;
12871;SDS011;6504;53.766;9.626;2023-02-15T07:11:07;21.23;;;17.87;;
12871;SDS011;6504;53.766;9.626;2023-02-15T07:14:07;21.60;;;17.47;;
12871;SDS011;6504;53.766;9.626;2023-02-15T07:16:35;21.30;;;17.70;;
12871;SDS011;6504;53.766;9.626;2023-02-15T07:19:03;19.80;;;17.60;;
12871;SDS011;6504;53.766;9.626;2023-02-15T07:21:32;18.77;;;16.27;;
12871;SDS011;6504;53.766;9.626;2023-02-15T07:24:01;18.83;;;16.83;;
12871;SDS011;6504;53.766;9.626;2023-02-15T07:26:30;17.77;;;15.63;;
12871;SDS011;6504;53.766;9.626;2023-02-15T07:28:59;16.83;;;15.03;;
12871;SDS011;6504;53.766;9.626;2023-02-15T07:31:28;17.20;;;15.30;;
12871;SDS011;6504;53.766;9.626;2023-02-15T07:33:57;17.90;;;15.97;;
12871;SDS011;6504;53.766;9.626;2023-02-15T07:36:25;18.60;;;16.50;;
12871;SDS011;6504;53.766;9.626;2023-02-15T07:38:53;19.10;;;16.63;;
12871;SDS011;6504;53.766;9.626;2023-02-15T07:41:22;19.23;;;16.47;;
12871;SDS011;6504;53.766;9.626;2023-02-15T07:43:51;19.33;;;15.93;;
12871;SDS011;6504;53.766;9.626;2023-02-15T07:46:19;19.40;;;16.33;;
12871;SDS011;6504;53.766;9.626;2023-02-15T07:48:47;20.63;;;18.13;;
12871;SDS011;6504;53.766;9.626;2023-02-15T07:51:16;18.90;;;16.50;;
12871;SDS011;6504;53.766;9.626;2023-02-15T07:53:44;19.57;;;17.37;;
12871;SDS011;6504;53.766;9.626;2023-02-15T07:56:13;18.47;;;16.50;;
12871;SDS011;6504;53.766;9.626;2023-02-15T07:58:43;19.70;;;17.30;;
12871;SDS011;6504;53.766;9.626;2023-02-15T08:01:23;22.00;;;18.60;;
12871;SDS011;6504;53.766;9.626;2023-02-15T08:03:54;20.73;;;17.13;;
12871;SDS011;6504;53.766;9.626;2023-02-15T08:06:25;19.53;;;17.43;;
12871;SDS011;6504;53.766;9.626;2023-02-15T08:08:55;22.57;;;18.53;;
12871;SDS011;6504;53.766;9.626;2023-02-15T08:11:24;21.47;;;18.63;;
12871;SDS011;6504;53.766;9.626;2023-02-15T08:13:57;21.63;;;18.73;;
12871;SDS011;6504;53.766;9.626;2023-02-15T08:16:29;20.70;;;17.63;;
12871;SDS011;6504;53.766;9.626;2023-02-15T08:18:59;22.07;;;18.40;;
12871;SDS011;6504;53.766;9.626;2023-02-15T08:21:30;20.53;;;17.77;;
12871;SDS011;6504;53.766;9.626;2023-02-15T08:24:00;22.50;;;18.30;;
12871;SDS011;6504;53.766;9.626;2023-02-15T08:26:29;21.10;;;17.53;;
12871;SDS011;6504;53.766;9.626;2023-02-15T08:28:59;22.17;;;19.37;;
12871;SDS011;6504;53.766;9.626;2023-02-15T08:31:28;23.43;;;19.23;;
12871;SDS011;6504;53.766;9.626;2023-02-15T08:33:57;23.20;;;20.70;;
12871;SDS011;6504;53.766;9.626;2023-02-15T08:36:28;21.43;;;19.13;;
12871;SDS011;6504;53.766;9.626;2023-02-15T08:38:59;22.90;;;19.33;;
12871;SDS011;6504;53.766;9.626;2023-02-15T08:41:29;22.17;;;19.40;;
12871;SDS011;6504;53.766;9.626;2023-02-15T08:44:01;20.17;;;17.80;;
12871;SDS011;6504;53.766;9.626;2023-02-15T08:46:32;20.30;;;18.10;;
12871;SDS011;6504;53.766;9.626;2023-02-15T08:49:01;21.83;;;19.13;;
12871;SDS011;6504;53.766;9.626;2023-02-15T08:51:30;21.07;;;18.23;;
12871;SDS011;6504;53.766;9.626;2023-02-15T08:54:01;21.83;;;19.20;;
12871;SDS011;6504;53.766;9.626;2023-02-15T08:56:32;21.43;;;19.00;;
12871;SDS011;6504;53.766;9.626;2023-02-15T08:59:03;25.03;;;19.33;;
12871;SDS011;6504;53.766;9.626;2023-02-15T09:01:32;20.57;;;18.07;;
12871;SDS011;6504;53.766;9.626;2023-02-15T09:04:02;20.30;;;17.77;;
12871;SDS011;6504;53.766;9.626;2023-02-15T09:06:36;23.17;;;18.70;;
12871;SDS011;6504;53.766;9.626;2023-02-15T09:09:05;20.60;;;17.60;;
12871;SDS011;6504;53.766;9.626;2023-02-15T09:11:34;20.20;;;17.27;;
12871;SDS011;6504;53.766;9.626;2023-02-15T09:14:06;19.03;;;17.03;;
12871;SDS011;6504;53.766;9.626;2023-02-15T09:16:36;20.03;;;17.20;;
12871;SDS011;6504;53.766;9.626;2023-02-15T09:19:05;19.77;;;17.57;;
12871;SDS011;6504;53.766;9.626;2023-02-15T09:21:35;19.83;;;17.77;;
12871;SDS011;6504;53.766;9.626;2023-02-15T09:24:05;18.73;;;16.47;;
12871;SDS011;6504;53.766;9.626;2023-02-15T09:26:37;20.77;;;17.97;;
12871;SDS011;6504;53.766;9.626;2023-02-15T09:29:08;19.57;;;17.33;;
12871;SDS011;6504;53.766;9.626;2023-02-15T09:31:38;21.47;;;18.13;;
12871;SDS011;6504;53.766;9.626;2023-02-15T09:34:10;20.93;;;18.23;;
12871;SDS011;6504;53.766;9.626;2023-02-15T09:36:39;21.57;;;19.13;;
12871;SDS011;6504;53.766;9.626;2023-02-15T09:39:09;21.63;;;19.13;;
12871;SDS011;6504;53.766;9.626;2023-02-15T09:44:33;21.37;;;18.63;;
12871;SDS011;6504;53.766;9.626;2023-02-15T09:47:23;22.17;;;19.50;;
12871;SDS011;6504;53.766;9.626;2023-02-15T09:50:08;27.10;;;21.23;;
12871;SDS011;6504;53.766;9.626;2023-02-15T09:52:47;26.80;;;21.80;;
12871;SDS011;6504;53.766;9.626;2023-02-15T09:55:28;25.90;;;22.27;;
12871;SDS011;6504;53.766;9.626;2023-02-15T09:58:11;27.33;;;22.57;;
12871;SDS011;6504;53.766;9.626;2023-02-15T10:00:50;23.67;;;20.70;;
12871;SDS011;6504;53.766;9.626;2023-02-15T10:03:32;22.23;;;19.00;;
12871;SDS011;6504;53.766;9.626;2023-02-15T10:09:03;22.67;;;20.20;;
12871;SDS011;6504;53.766;9.626;2023-02-15T10:11:49;24.47;;;20.43;;
12871;SDS011;6504;53.766;9.626;2023-02-15T10:14:31;24.93;;;20.57;;
12871;SDS011;6504;53.766;9.626;2023-02-15T10:17:17;24.33;;;20.90;;
12871;SDS011;6504;53.766;9.626;2023-02-15T10:19:59;23.37;;;20.53;;
12871;SDS011;6504;53.766;9.626;2023-02-15T10:22:42;25.47;;;21.00;;
12871;SDS011;6504;53.766;9.626;2023-02-15T10:25:25;24.43;;;21.13;;
12871;SDS011;6504;53.766;9.626;2023-02-15T10:28:00;26.00;;;21.97;;
12871;SDS011;6504;53.766;9.626;2023-02-15T10:30:36;26.10;;;22.70;;
12871;SDS011;6504;53.766;9.626;2023-02-15T10:33:16;27.20;;;23.10;;
12871;SDS011;6504;53.766;9.626;2023-02-15T10:36:01;25.33;;;21.93;;
12871;SDS011;6504;53.766;9.626;2023-02-15T10:38:39;26.07;;;23.27;;
12871;SDS011;6504;53.766;9.626;2023-02-15T10:41:18;26.07;;;22.53;;
12871;SDS011;6504;53.766;9.626;2023-02-15T10:43:58;27.40;;;23.47;;
12871;SDS011;6504;53.766;9.626;2023-02-15T10:49:53;28.97;;;24.10;;
12871;SDS011;6504;53.766;9.626;2023-02-15T10:52:37;34.53;;;26.33;;
12871;SDS011;6504;53.766;9.626;2023-02-15T10:55:20;29.17;;;23.93;;
12871;SDS011;6504;53.766;9.626;2023-02-15T10:57:59;28.30;;;23.80;;
12871;SDS011;6504;53.766;9.626;2023-02-15T11:00:39;26.77;;;23.17;;
12871;SDS011;6504;53.766;9.626;2023-02-15T11:03:19;28.23;;;23.57;;
12871;SDS011;6504;53.766;9.626;2023-02-15T11:06:02;28.00;;;25.00;;
12871;SDS011;6504;53.766;9.626;2023-02-15T11:08:33;27.90;;;23.03;;
12871;SDS011;6504;53.766;9.626;2023-02-15T11:11:05;30.43;;;25.27;;
12871;SDS011;6504;53.766;9.626;2023-02-15T11:13:37;28.43;;;24.40;;
12871;SDS011;6504;53.766;9.626;2023-02-15T11:16:10;29.13;;;25.87;;
12871;SDS011;6504;53.766;9.626;2023-02-15T11:18:45;29.10;;;24.40;;
12871;SDS011;6504;53.766;9.626;2023-02-15T11:21:20;29.83;;;25.90;;
12871;SDS011;6504;53.766;9.626;2023-02-15T11:23:50;31.50;;;25.07;;
12871;SDS011;6504;53.766;9.626;2023-02-15T11:26:21;31.80;;;26.23;;
12871;SDS011;6504;53.766;9.626;2023-02-15T11:28:57;30.73;;;25.83;;
12871;SDS011;6504;53.766;9.626;2023-02-15T11:31:31;31.93;;;26.57;;
12871;SDS011;6504;53.766;9.626;2023-02-15T11:34:12;31.50;;;25.93;;
12871;SDS011;6504;53.766;9.626;2023-02-15T11:36:47;34.37;;;27.47;;
12871;SDS011;6504;53.766;9.626;2023-02-15T11:39:19;30.67;;;25.53;;
12871;SDS011;6504;53.766;9.626;2023-02-15T11:41:50;30.00;;;24.73;;
12871;SDS011;6504;53.766;9.626;2023-02-15T11:44:22;32.90;;;27.37;;
12871;SDS011;6504;53.766;9.626;2023-02-15T11:46:55;33.93;;;27.70;;
12871;SDS011;6504;53.766;9.626;2023-02-15T11:49:25;33.83;;;27.47;;
12871;SDS011;6504;53.766;9.626;2023-02-15T11:51:58;33.83;;;27.27;;
12871;SDS011;6504;53.766;9.626;2023-02-15T11:54:29;32.40;;;27.03;;
12871;SDS011;6504;53.766;9.626;2023-02-15T11:57:03;28.53;;;25.00;;
12871;SDS011;6504;53.766;9.626;2023-02-15T11:59:43;30.00;;;26.30;;
12871;SDS011;6504;53.766;9.626;2023-02-15T12:02:17;28.93;;;24.90;;
12871;SDS011;6504;53.766;9.626;2023-02-15T12:04:48;31.47;;;26.67;;
12871;SDS011;6504;53.766;9.626;2023-02-15T12:07:22;29.10;;;24.63;;
12871;SDS011;6504;53.766;9.626;2023-02-15T12:09:53;30.53;;;25.40;;
12871;SDS011;6504;53.766;9.626;2023-02-15T12:12:29;30.17;;;24.67;;
12871;SDS011;6504;53.766;9.626;2023-02-15T12:14:59;28.80;;;25.37;;
12871;SDS011;6504;53.766;9.626;2023-02-15T12:17:29;30.33;;;25.40;;
12871;SDS011;6504;53.766;9.626;2023-02-15T12:20:01;30.07;;;26.43;;
12871;SDS011;6504;53.766;9.626;2023-02-15T12:22:35;35.23;;;27.73;;
12871;SDS011;6504;53.766;9.626;2023-02-15T12:25:19;32.67;;;26.30;;
12871;SDS011;6504;53.766;9.626;2023-02-15T12:27:49;30.53;;;25.00;;
12871;SDS011;6504;53.766;9.626;2023-02-15T12:30:20;31.80;;;27.27;;
12871;SDS011;6504;53.766;9.626;2023-02-15T12:32:53;32.77;;;27.33;;
12871;SDS011;6504;53.766;9.626;2023-02-15T12:35:26;31.80;;;26.83;;
12871;SDS011;6504;53.766;9.626;2023-02-15T12:38:00;32.53;;;27.13;;
12871;SDS011;6504;53.766;9.626;2023-02-15T12:40:32;32.50;;;27.33;;
12871;SDS011;6504;53.766;9.626;2023-02-15T12:43:02;36.10;;;29.57;;
12871;SDS011;6504;53.766;9.626;2023-02-15T12:45:35;40.93;;;31.23;;
12871;SDS011;6504;53.766;9.626;2023-02-15T12:48:09;34.80;;;29.43;;
12871;SDS011;6504;53.766;9.626;2023-02-15T12:50:42;34.37;;;28.80;;
12871;SDS011;6504;53.766;9.626;2023-02-15T12:53:15;38.13;;;31.53;;
12871;SDS011;6504;53.766;9.626;2023-02-15T12:55:49;48.23;;;38.10;;
12871;SDS011;6504;53.766;9.626;2023-02-15T12:58:20;41.97;;;34.53;;
12871;SDS011;6504;53.766;9.626;2023-02-15T13:01:08;37.27;;;30.87;;
12871;SDS011;6504;53.766;9.626;2023-02-15T13:03:49;35.67;;;30.03;;
12871;SDS011;6504;53.766;9.626;2023-02-15T13:06:23;36.73;;;30.43;;
12871;SDS011;6504;53.766;9.626;2023-02-15T13:08:54;34.33;;;30.40;;
12871;SDS011;6504;53.766;9.626;2023-02-15T13:11:25;38.50;;;31.80;;
12871;SDS011;6504;53.766;9.626;2023-02-15T13:14:00;34.90;;;30.33;;
12871;SDS011;6504;53.766;9.626;2023-02-15T13:16:30;35.23;;;30.97;;
12871;SDS011;6504;53.766;9.626;2023-02-15T13:19:02;36.47;;;30.33;;
12871;SDS011;6504;53.766;9.626;2023-02-15T13:21:34;39.73;;;32.73;;
12871;SDS011;6504;53.766;9.626;2023-02-15T13:24:13;41.67;;;34.20;;
12871;SDS011;6504;53.766;9.626;2023-02-15T13:26:45;38.87;;;33.00;;
12871;SDS011;6504;53.766;9.626;2023-02-15T13:29:16;36.03;;;30.73;;
12871;SDS011;6504;53.766;9.626;2023-02-15T13:31:49;35.90;;;30.30;;
12871;SDS011;6504;53.766;9.626;2023-02-15T13:34:20;37.43;;;31.17;;
12871;SDS011;6504;53.766;9.626;2023-02-15T13:36:53;37.37;;;32.50;;
12871;SDS011;6504;53.766;9.626;2023-02-15T13:39:29;36.33;;;31.17;;
12871;SDS011;6504;53.766;9.626;2023-02-15T13:42:02;41.00;;;34.23;;
12871;SDS011;6504;53.766;9.626;2023-02-15T13:44:49;40.10;;;32.90;;
12871;SDS011;6504;53.766;9.626;2023-02-15T13:47:30;38.47;;;32.00;;
12871;SDS011;6504;53.766;9.626;2023-02-15T13:50:07;40.70;;;33.80;;
12871;SDS011;6504;53.766;9.626;2023-02-15T13:52:46;42.40;;;34.97;;
12871;SDS011;6504;53.766;9.626;2023-02-15T13:55:28;40.10;;;32.40;;
12871;SDS011;6504;53.766;9.626;2023-02-15T13:58:07;37.27;;;31.30;;
12871;SDS011;6504;53.766;9.626;2023-02-15T14:01:04;37.40;;;32.07;;
12871;SDS011;6504;53.766;9.626;2023-02-15T14:03:47;36.67;;;31.60;;
12871;SDS011;6504;53.766;9.626;2023-02-15T14:09:36;37.90;;;31.57;;
12871;SDS011;6504;53.766;9.626;2023-02-15T14:12:22;39.33;;;32.40;;
12871;SDS011;6504;53.766;9.626;2023-02-15T14:15:08;41.77;;;34.67;;
12871;SDS011;6504;53.766;9.626;2023-02-15T14:17:58;40.43;;;33.13;;
12871;SDS011;6504;53.766;9.626;2023-02-15T14:20:39;37.90;;;33.00;;
12871;SDS011;6504;53.766;9.626;2023-02-15T14:23:21;37.90;;;33.47;;
12871;SDS011;6504;53.766;9.626;2023-02-15T14:25:59;47.30;;;36.40;;
12871;SDS011;6504;53.766;9.626;2023-02-15T14:28:33;42.33;;;34.20;;
12871;SDS011;6504;53.766;9.626;2023-02-15T14:31:06;40.23;;;34.30;;
12871;SDS011;6504;53.766;9.626;2023-02-15T14:33:40;42.27;;;34.77;;
12871;SDS011;6504;53.766;9.626;2023-02-15T14:36:13;40.50;;;34.20;;
12871;SDS011;6504;53.766;9.626;2023-02-15T14:38:52;42.07;;;35.13;;
12871;SDS011;6504;53.766;9.626;2023-02-15T14:41:28;40.60;;;34.80;;
12871;SDS011;6504;53.766;9.626;2023-02-15T14:44:08;39.83;;;34.17;;
12871;SDS011;6504;53.766;9.626;2023-02-15T14:46:42;38.77;;;33.63;;
12871;SDS011;6504;53.766;9.626;2023-02-15T14:49:16;41.50;;;35.57;;
12871;SDS011;6504;53.766;9.626;2023-02-15T14:51:55;41.57;;;34.57;;
12871;SDS011;6504;53.766;9.626;2023-02-15T14:57:36;41.93;;;33.97;;
12871;SDS011;6504;53.766;9.626;2023-02-15T15:02:59;39.77;;;32.47;;
12871;SDS011;6504;53.766;9.626;2023-02-15T15:05:31;41.73;;;34.80;;
12871;SDS011;6504;53.766;9.626;2023-02-15T15:08:01;40.20;;;33.57;;
12871;SDS011;6504;53.766;9.626;2023-02-15T15:10:33;40.10;;;35.20;;
12871;SDS011;6504;53.766;9.626;2023-02-15T15:22:31;40.13;;;34.03;;
12871;SDS011;6504;53.766;9.626;2023-02-15T15:25:00;37.50;;;33.40;;
12871;SDS011;6504;53.766;9.626;2023-02-15T15:27:42;40.40;;;35.20;;
12871;SDS011;6504;53.766;9.626;2023-02-15T15:33:38;39.40;;;34.87;;
12871;SDS011;6504;53.766;9.626;2023-02-15T15:39:44;36.93;;;32.90;;
12871;SDS011;6504;53.766;9.626;2023-02-15T15:42:38;38.93;;;34.67;;
12871;SDS011;6504;53.766;9.626;2023-02-15T15:45:25;40.93;;;35.63;;
12871;SDS011;6504;53.766;9.626;2023-02-15T15:48:11;39.73;;;35.13;;
12871;SDS011;6504;53.766;9.626;2023-02-15T15:50:58;39.27;;;34.53;;